Time;durP1;ratioP1;P1;durP2;ratioP2;P2;SDS_P1;SDS_P2;PMS_P1;PMS_P2;Temp;Humidity;BMP_temperature;BMP_pressure;BME280_temperature;BME280_humidity;BME280_pressure;Samples;Min_cycle;Max_cycle;Signal;HPM_P1;HPM_P2
2022/11/11 00:00:24;;;;;;;19.08;3.55;;;;;;;11.98;92.63;102318.66;4970364;28;20073;-72
2022/11/11 00:02:50;;;;;;;19.75;4.00;;;;;;;12.03;92.42;102321.84;4970392;28;20121;-72
2022/11/11 00:05:16;;;;;;;21.67;4.18;;;;;;;11.92;93.04;102321.91;4969862;28;20117;-71
2022/11/11 00:07:42;;;;;;;20.35;5.22;;;;;;;12.12;92.31;102310.19;4971696;28;20036;-72
2022/11/11 00:10:09;;;;;;;15.10;4.28;;;;;;;12.21;92.03;102313.97;4970680;28;20023;-72
2022/11/11 00:12:34;;;;;;;14.70;4.88;;;;;;;12.10;92.32;102333.91;4970924;28;20019;-72
2022/11/11 00:15:00;;;;;;;24.33;4.72;;;;;;;12.13;92.58;102322.78;4970891;28;20037;-71
2022/11/11 00:25:38;;;;;;;22.67;5.20;;;;;;;12.00;93.14;102311.28;4970810;28;20278;-71
2022/11/11 00:28:03;;;;;;;20.38;4.95;;;;;;;12.08;92.85;102311.47;4970189;28;20034;-72
2022/11/11 00:30:29;;;;;;;18.13;5.35;;;;;;;12.22;92.11;102327.41;4970015;28;20058;-72
2022/11/11 00:32:55;;;;;;;16.92;5.20;;;;;;;12.16;92.40;102313.50;4970835;28;20066;-72
2022/11/11 00:38:09;;;;;;;18.60;5.90;;;;;;;12.13;92.91;102320.06;4970919;28;20113;-72
2022/11/11 00:40:34;;;;;;;27.35;5.72;;;;;;;12.10;92.99;102306.75;4969929;28;20498;-72
2022/11/11 00:43:00;;;;;;;14.52;5.75;;;;;;;12.03;93.14;102311.00;4971546;28;20031;-72
2022/11/11 00:45:25;;;;;;;18.10;5.68;;;;;;;12.05;92.95;102292.72;4969657;28;20023;-72
2022/11/11 00:53:22;;;;;;;21.95;4.70;;;;;;;12.36;91.91;102300.91;4970888;28;20027;-72
2022/11/11 00:55:47;;;;;;;27.27;5.97;;;;;;;12.14;92.59;102308.22;4985876;28;20029;-72
2022/11/11 00:58:12;;;;;;;20.42;5.80;;;;;;;12.07;93.12;102307.03;4985750;28;20035;-72
2022/11/11 01:00:38;;;;;;;25.83;7.03;;;;;;;12.14;93.53;102308.22;4970146;28;20030;-72
2022/11/11 01:03:04;;;;;;;20.70;6.45;;;;;;;12.17;92.96;102307.06;4970672;28;20126;-71
2022/11/11 01:05:29;;;;;;;29.65;6.95;;;;;;;12.17;93.16;102307.94;4970448;28;20027;-72
2022/11/11 01:07:55;;;;;;;23.80;6.72;;;;;;;12.10;93.49;102311.31;4969686;28;20027;-72
2022/11/11 01:13:22;;;;;;;21.67;6.47;;;;;;;12.09;93.34;102315.03;4970895;28;20506;-72
2022/11/11 01:15:50;;;;;;;21.45;6.20;;;;;;;12.38;92.51;102309.75;4971563;28;20082;-72
2022/11/11 01:18:21;;;;;;;24.05;6.40;;;;;;;12.37;92.60;102316.19;4973862;28;20066;-72
2022/11/11 01:20:46;;;;;;;20.20;5.43;;;;;;;12.32;92.94;102321.16;4974712;28;20062;-72
2022/11/11 01:23:13;;;;;;;24.15;6.35;;;;;;;12.35;93.04;102320.91;4974396;28;20085;-71
2022/11/11 01:25:40;;;;;;;26.02;7.05;;;;;;;12.34;92.69;102325.50;4973215;28;20082;-71
2022/11/11 01:28:07;;;;;;;23.80;7.32;;;;;;;12.28;93.05;102330.59;4989756;28;20037;-72
2022/11/11 01:30:33;;;;;;;21.98;6.03;;;;;;;12.19;93.28;102322.25;4974680;28;20027;-72
2022/11/11 01:32:59;;;;;;;18.40;5.95;;;;;;;12.22;93.40;102327.41;4989285;28;20039;-71
2022/11/11 01:35:25;;;;;;;30.30;7.07;;;;;;;12.23;93.52;102307.41;4972907;28;20023;-72
2022/11/11 01:37:50;;;;;;;20.33;5.97;;;;;;;12.37;92.86;102319.78;4974067;28;20088;-71
2022/11/11 01:40:16;;;;;;;27.02;6.65;;;;;;;12.40;92.86;102307.78;4974004;28;20472;-72
2022/11/11 01:42:47;;;;;;;21.70;5.80;;;;;;;12.41;93.18;102314.94;4973269;28;20027;-73
2022/11/11 01:45:43;;;;;;;24.47;7.33;;;;;;;12.30;93.32;102323.16;4972950;28;20050;-73
2022/11/11 01:51:02;;;;;;;27.60;7.88;;;;;;;12.43;92.66;102315.66;4974273;28;20031;-71
2022/11/11 01:53:28;;;;;;;31.50;7.53;;;;;;;12.25;93.94;102309.13;4969665;28;20027;-72
2022/11/11 01:55:54;;;;;;;21.20;6.05;;;;;;;12.22;93.74;102294.81;4954699;28;20050;-72
2022/11/11 01:58:20;;;;;;;28.20;6.50;;;;;;;12.26;93.67;102294.53;4953487;29;20082;-71
2022/11/11 02:00:45;;;;;;;27.20;6.50;;;;;;;12.27;93.59;102290.84;4954056;29;20035;-72
2022/11/11 02:03:13;;;;;;;24.25;6.60;;;;;;;12.34;93.40;102298.31;4959341;28;20041;-71
2022/11/11 02:05:42;;;;;;;27.80;7.15;;;;;;;12.25;93.68;102303.69;4972334;28;20109;-71
2022/11/11 02:08:14;;;;;;;29.15;6.55;;;;;;;12.28;94.15;102298.00;4972864;28;20026;-71
2022/11/11 02:10:43;;;;;;;18.17;6.15;;;;;;;12.29;93.20;102288.84;4973114;28;20095;-72
2022/11/11 02:15:57;;;;;;;21.35;6.82;;;;;;;12.17;93.95;102286.22;4973673;28;20034;-71
2022/11/11 02:18:23;;;;;;;20.60;5.70;;;;;;;12.38;93.36;102278.03;4972697;28;20063;-71
2022/11/11 02:20:48;;;;;;;22.30;5.95;;;;;;;12.28;93.82;102281.72;4965282;28;20142;-72
2022/11/11 02:23:29;;;;;;;20.15;7.18;;;;;;;12.23;93.94;102280.25;4969144;28;20050;-72
2022/11/11 02:25:56;;;;;;;21.47;6.30;;;;;;;12.30;93.25;102285.13;4953161;29;20023;-72
2022/11/11 02:28:24;;;;;;;24.23;7.18;;;;;;;12.34;93.41;102276.59;4969217;28;20031;-72
2022/11/11 02:30:49;;;;;;;19.95;5.88;;;;;;;12.07;94.61;102285.31;4954534;29;20121;-72
2022/11/11 02:33:15;;;;;;;20.67;6.40;;;;;;;12.25;93.30;102281.97;4964689;28;20062;-71
2022/11/11 02:35:45;;;;;;;22.60;6.03;;;;;;;12.01;94.54;102285.84;4952775;29;20126;-70
2022/11/11 02:38:11;;;;;;;20.42;6.65;;;;;;;11.93;94.99;102259.38;4954564;28;20089;-71
2022/11/11 02:43:29;;;;;;;19.80;6.68;;;;;;;11.90;94.73;102256.03;4954047;29;20027;-71
2022/11/11 02:45:55;;;;;;;24.77;6.80;;;;;;;11.79;95.31;102258.78;4952828;29;20035;-71
2022/11/11 02:48:22;;;;;;;27.35;5.95;;;;;;;11.88;94.88;102258.91;4952852;29;20031;-70
2022/11/11 02:50:47;;;;;;;23.55;7.00;;;;;;;11.90;94.44;102261.47;4968674;28;20023;-73
2022/11/11 02:53:12;;;;;;;18.23;5.75;;;;;;;11.80;95.26;102265.94;4972817;28;20109;-71
2022/11/11 02:55:37;;;;;;;25.75;6.40;;;;;;;11.71;95.49;102283.00;4972715;28;20072;-71
2022/11/11 02:58:03;;;;;;;17.58;5.75;;;;;;;11.79;95.26;102285.91;4971780;28;20099;-71
2022/11/11 03:00:28;;;;;;;20.88;6.30;;;;;;;11.68;95.14;102295.84;4972972;28;20026;-71
2022/11/11 03:02:54;;;;;;;20.77;6.07;;;;;;;11.63;95.57;102300.81;4971758;28;20030;-71
2022/11/11 03:05:28;;;;;;;25.73;5.93;;;;;;;11.64;95.84;102309.81;4991355;23;20035;-79
2022/11/11 03:08:26;;;;;;;20.15;6.13;;;;;;;11.52;96.04;102314.41;4922934;28;20028;-78
2022/11/11 03:11:29;;;;;;;19.27;6.88;;;;;;;11.61;96.10;102310.94;4939900;29;20135;-78
2022/11/11 03:19:23;;;;;;;22.50;6.30;;;;;;;11.69;95.80;102324.72;4937967;29;20035;-72
2022/11/11 03:21:48;;;;;;;22.65;6.43;;;;;;;11.71;95.94;102327.28;4954501;28;20382;-71
2022/11/11 03:24:14;;;;;;;38.72;8.95;;;;;;;11.68;95.98;102317.56;4947849;28;20028;-71
2022/11/11 03:26:39;;;;;;;22.35;6.93;;;;;;;11.69;95.87;102313.84;4933427;29;20019;-71
2022/11/11 03:29:04;;;;;;;24.15;7.55;;;;;;;11.55;96.30;102318.72;4958860;28;20027;-71
2022/11/11 03:31:30;;;;;;;26.67;6.82;;;;;;;11.48;97.04;102328.38;4932829;28;20028;-69
2022/11/11 03:34:16;;;;;;;19.55;6.53;;;;;;;11.75;95.63;102328.75;4947894;29;20099;-70
2022/11/11 03:39:25;;;;;;;24.27;7.57;;;;;;;11.58;96.00;102324.75;4951962;28;20030;-70
2022/11/11 03:41:50;;;;;;;22.38;6.63;;;;;;;11.63;95.48;102319.81;4967138;28;20027;-72
2022/11/11 03:44:15;;;;;;;23.15;6.43;;;;;;;11.49;96.15;102322.81;4966956;28;20027;-72
2022/11/11 03:46:40;;;;;;;18.27;6.45;;;;;;;11.61;96.14;102331.78;4967200;28;20069;-72
2022/11/11 03:49:06;;;;;;;23.08;7.45;;;;;;;11.53;95.88;102329.69;4950503;28;20118;-70
2022/11/11 03:51:31;;;;;;;17.42;6.82;;;;;;;11.61;96.01;102332.66;4931594;29;20023;-69
2022/11/11 03:53:57;;;;;;;17.52;6.75;;;;;;;11.62;95.59;102334.34;4947318;29;20064;-70
2022/11/11 03:56:22;;;;;;;21.83;6.80;;;;;;;11.51;96.16;102345.25;4933032;29;20079;-69
2022/11/11 03:58:47;;;;;;;24.35;6.65;;;;;;;11.51;95.94;102353.38;4931857;29;20032;-70
2022/11/11 04:10:21;;;;;;;26.13;8.13;;;;;;;11.48;95.91;102348.22;4932239;29;20070;-69
2022/11/11 04:12:09;;;;;;;23.77;7.68;;;;;;;11.35;96.63;102358.38;4932299;29;20038;-70
2022/11/11 04:17:19;;;;;;;18.13;6.97;;;;;;;11.31;96.76;102352.31;4932451;29;20059;-71
2022/11/11 04:22:28;;;;;;;29.95;8.30;;;;;;;11.38;96.75;102355.38;4926274;29;20036;-71
2022/11/11 04:27:37;;;;;;;20.83;8.13;;;;;;;11.17;97.67;102368.00;4932533;29;20038;-72
2022/11/11 04:30:03;;;;;;;27.85;8.32;;;;;;;11.25;97.04;102351.97;4932459;29;20031;-72
2022/11/11 04:32:34;;;;;;;24.33;7.68;;;;;;;11.44;96.15;102352.16;4932635;29;20066;-72
2022/11/11 04:35:02;;;;;;;24.35;6.88;;;;;;;11.21;97.03;102353.19;4932302;29;20027;-72
2022/11/11 04:37:31;;;;;;;23.33;7.93;;;;;;;11.17;97.14;102360.75;4947125;28;20090;-72
2022/11/11 04:42:43;;;;;;;24.73;8.52;;;;;;;11.13;97.11;102376.38;4951127;29;20019;-72
2022/11/11 04:45:29;;;;;;;23.65;8.02;;;;;;;11.29;96.70;102369.72;4932736;29;20023;-70
2022/11/11 04:48:04;;;;;;;26.52;8.90;;;;;;;11.02;97.80;102384.53;4930980;29;20031;-70
2022/11/11 04:50:41;;;;;;;24.95;8.20;;;;;;;11.08;97.88;102356.94;4931433;29;20107;-70
2022/11/11 04:53:10;;;;;;;31.38;8.50;;;;;;;10.93;98.26;102352.75;4947800;29;20019;-70
2022/11/11 04:58:23;;;;;;;20.25;8.05;;;;;;;11.09;97.44;102358.66;4933325;29;20480;-70
2022/11/11 05:00:48;;;;;;;29.10;8.80;;;;;;;10.94;98.09;102354.47;4931615;29;20028;-70
2022/11/11 05:03:15;;;;;;;31.52;9.20;;;;;;;10.93;97.84;102363.59;4932610;29;20030;-71
2022/11/11 05:11:13;;;;;;;20.17;8.43;;;;;;;10.98;97.85;102355.97;4932437;29;20027;-71
2022/11/11 05:22:25;;;;;;;23.52;9.10;;;;;;;10.82;98.50;102339.19;4932083;29;20027;-71
2022/11/11 05:27:34;;;;;;;23.42;9.48;;;;;;;10.70;99.11;102338.38;4932292;29;20020;-71
2022/11/11 05:30:00;;;;;;;29.77;10.18;;;;;;;10.79;98.72;102339.47;4932350;29;20035;-71
2022/11/11 05:32:25;;;;;;;23.13;9.85;;;;;;;10.73;98.76;102339.94;4947214;29;20036;-72
2022/11/11 05:34:51;;;;;;;30.15;10.65;;;;;;;10.92;98.10;102344.75;4931055;29;20032;-71
2022/11/11 05:37:17;;;;;;;24.88;9.98;;;;;;;10.91;98.01;102349.31;4948108;29;20039;-72
2022/11/11 05:39:42;;;;;;;33.13;10.73;;;;;;;10.81;98.03;102364.56;4964107;28;20053;-72
2022/11/11 05:42:08;;;;;;;28.77;10.25;;;;;;;10.67;98.75;102356.69;4947436;29;20027;-71
2022/11/11 05:44:33;;;;;;;34.97;10.32;;;;;;;10.63;99.49;102352.50;4946742;29;20026;-71
2022/11/11 05:46:59;;;;;;;36.22;11.00;;;;;;;10.59;99.12;102360.88;4931640;29;20087;-72
2022/11/11 05:49:25;;;;;;;29.45;11.38;;;;;;;10.63;99.16;102360.63;4946758;29;20118;-70
2022/11/11 05:51:52;;;;;;;28.15;11.77;;;;;;;10.61;99.39;102366.16;4930873;29;20098;-71
2022/11/11 05:54:17;;;;;;;39.55;12.20;;;;;;;10.58;99.28;102364.56;4932185;29;20027;-71
2022/11/11 05:56:43;;;;;;;33.05;11.98;;;;;;;10.70;98.97;102356.47;4947218;29;20096;-71
2022/11/11 05:59:09;;;;;;;30.08;11.65;;;;;;;10.64;99.34;102351.53;4932058;29;20078;-71
2022/11/11 06:01:35;;;;;;;38.42;12.52;;;;;;;10.71;99.44;102358.19;4930744;29;20039;-71
2022/11/11 06:04:00;;;;;;;34.90;10.85;;;;;;;10.75;99.38;102365.94;4934337;29;20032;-71
2022/11/11 06:06:26;;;;;;;43.35;12.73;;;;;;;10.79;98.83;102378.25;4935325;29;20031;-71
2022/11/11 06:08:51;;;;;;;29.60;11.45;;;;;;;10.93;98.31;102366.31;4934345;29;20023;-70
2022/11/11 06:11:17;;;;;;;40.35;12.38;;;;;;;10.84;98.61;102373.34;4934519;29;20497;-70
2022/11/11 06:13:42;;;;;;;39.38;12.10;;;;;;;10.76;99.25;102377.66;4932675;29;20035;-70
2022/11/11 06:16:08;;;;;;;39.58;13.55;;;;;;;10.80;98.97;102392.66;4929990;29;20087;-70
2022/11/11 06:18:34;;;;;;;28.77;12.70;;;;;;;10.77;99.32;102390.22;4949942;29;20035;-70
2022/11/11 06:20:59;;;;;;;31.15;14.57;;;;;;;10.73;99.66;102388.72;4949749;29;20127;-71
2022/11/11 06:23:26;;;;;;;36.05;14.45;;;;;;;10.65;99.91;102391.19;4933675;29;20401;-70
2022/11/11 06:28:36;;;;;;;33.03;13.27;;;;;;;10.86;98.80;102390.31;4934682;29;20032;-71
2022/11/11 06:31:02;;;;;;;40.10;14.68;;;;;;;10.72;99.74;102387.00;4935380;29;20063;-71
2022/11/11 06:33:27;;;;;;;32.08;13.93;;;;;;;10.79;99.71;102399.06;4934992;29;20038;-71
2022/11/11 06:35:53;;;;;;;34.03;14.13;;;;;;;10.97;98.68;102403.03;4953707;28;20023;-71
2022/11/11 06:38:19;;;;;;;30.38;13.98;;;;;;;10.77;100.00;102395.63;4953921;28;20062;-71
2022/11/11 06:40:45;;;;;;;35.83;13.82;;;;;;;10.85;99.62;102404.00;4958604;28;20055;-71
2022/11/11 06:43:11;;;;;;;35.42;14.70;;;;;;;10.86;99.44;102417.41;4934734;29;20136;-71
2022/11/11 06:45:36;;;;;;;40.47;14.57;;;;;;;10.82;100.00;102409.66;4933160;29;20119;-71
2022/11/11 06:48:03;;;;;;;34.90;15.52;;;;;;;10.67;100.00;102427.13;4934191;29;20028;-71
2022/11/11 06:50:30;;;;;;;35.17;14.90;;;;;;;10.81;100.00;102424.19;4934024;29;20027;-71
2022/11/11 06:52:56;;;;;;;43.35;17.23;;;;;;;10.69;100.00;102430.56;4948810;29;20484;-70
2022/11/11 06:55:22;;;;;;;43.65;17.90;;;;;;;10.69;100.00;102427.84;4933898;29;20026;-71
2022/11/11 06:57:47;;;;;;;40.97;16.02;;;;;;;10.95;100.00;102436.63;4948744;29;20035;-71
2022/11/11 07:00:13;;;;;;;44.95;16.83;;;;;;;10.90;100.00;102442.44;4948913;29;20054;-71
2022/11/11 07:02:39;;;;;;;42.35;17.13;;;;;;;10.81;100.00;102440.44;4934586;29;20091;-70
2022/11/11 07:05:05;;;;;;;50.70;18.83;;;;;;;10.65;100.00;102440.81;4933375;29;20111;-70
2022/11/11 07:07:30;;;;;;;52.05;18.95;;;;;;;10.72;100.00;102446.59;4948699;29;20015;-71
2022/11/11 07:09:56;;;;;;;48.63;19.45;;;;;;;10.71;100.00;102455.72;4949303;29;20066;-71
2022/11/11 07:12:22;;;;;;;51.20;21.80;;;;;;;10.58;100.00;102439.56;4933495;29;20027;-71
2022/11/11 07:14:47;;;;;;;55.63;20.90;;;;;;;10.51;100.00;102450.00;4931008;29;20039;-70
2022/11/11 07:17:12;;;;;;;52.95;22.42;;;;;;;10.52;100.00;102446.31;4933485;29;20095;-71
2022/11/11 07:19:38;;;;;;;44.60;20.92;;;;;;;10.45;100.00;102460.44;4948385;29;20024;-70
2022/11/11 07:22:03;;;;;;;51.10;19.40;;;;;;;10.53;100.00;102448.03;4948359;29;20099;-71
2022/11/11 07:24:29;;;;;;;60.47;21.83;;;;;;;10.47;100.00;102464.75;4948040;29;20089;-70
2022/11/11 07:26:54;;;;;;;45.45;21.25;;;;;;;10.51;100.00;102460.84;4948200;29;20024;-71
2022/11/11 07:29:19;;;;;;;58.83;19.85;;;;;;;10.52;100.00;102454.44;4933360;29;20023;-73
2022/11/11 07:31:45;;;;;;;43.50;20.95;;;;;;;10.55;100.00;102451.47;4949479;29;20409;-72
2022/11/11 07:34:10;;;;;;;54.60;18.65;;;;;;;10.73;100.00;102449.19;4948830;29;20083;-72
2022/11/11 07:36:36;;;;;;;52.10;20.83;;;;;;;10.70;100.00;102454.00;4934138;29;20035;-72
2022/11/11 07:39:01;;;;;;;54.97;20.67;;;;;;;10.53;100.00;102464.28;4933531;29;20062;-72
2022/11/11 07:41:28;;;;;;;45.38;20.42;;;;;;;10.63;100.00;102468.97;4948333;29;20102;-72
2022/11/11 07:43:53;;;;;;;54.08;22.80;;;;;;;10.69;100.00;102468.50;4948303;29;20512;-71
2022/11/11 07:46:18;;;;;;;69.68;24.35;;;;;;;10.50;100.00;102475.38;4933460;29;20042;-74
2022/11/11 07:48:44;;;;;;;48.78;20.92;;;;;;;10.53;100.00;102475.13;4948540;29;20067;-73
2022/11/11 07:51:09;;;;;;;51.58;19.90;;;;;;;10.59;100.00;102466.53;4926441;29;20024;-71
2022/11/11 07:53:34;;;;;;;57.30;24.10;;;;;;;10.49;100.00;102468.19;4927563;29;20527;-71
2022/11/11 07:56:00;;;;;;;51.72;24.20;;;;;;;10.41;100.00;102486.88;4941615;29;20516;-71
2022/11/11 07:58:25;;;;;;;57.50;24.23;;;;;;;10.47;100.00;102481.00;4929202;29;20083;-70
2022/11/11 08:00:51;;;;;;;58.80;23.27;;;;;;;10.56;100.00;102479.41;4943398;29;20527;-71
2022/11/11 08:03:16;;;;;;;62.25;24.48;;;;;;;10.67;100.00;102481.31;4942555;29;20035;-71
2022/11/11 08:05:42;;;;;;;50.83;23.98;;;;;;;10.75;100.00;102489.69;4942346;29;20043;-71
2022/11/11 08:08:09;;;;;;;49.20;23.48;;;;;;;10.71;100.00;102486.38;4927624;29;20118;-72
2022/11/11 08:10:35;;;;;;;60.20;22.80;;;;;;;10.73;100.00;102491.66;4941418;29;20063;-72
2022/11/11 08:15:45;;;;;;;56.85;26.48;;;;;;;10.52;100.00;102503.19;4927883;29;20039;-72
2022/11/11 08:18:10;;;;;;;52.85;26.25;;;;;;;10.67;100.00;102497.56;4943280;29;20032;-72
2022/11/11 08:20:37;;;;;;;50.05;24.98;;;;;;;10.74;100.00;102498.81;4926814;29;20507;-72
2022/11/11 08:23:09;;;;;;;53.90;26.42;;;;;;;10.56;100.00;102507.41;4927919;29;20050;-72
2022/11/11 08:25:35;;;;;;;58.35;26.38;;;;;;;10.70;100.00;102494.63;4941751;28;20047;-73
2022/11/11 08:28:03;;;;;;;81.57;29.17;;;;;;;10.51;100.00;102493.34;4941822;29;20030;-74
2022/11/11 08:30:32;;;;;;;50.10;24.85;;;;;;;10.77;100.00;102499.44;4928591;29;20384;-73
2022/11/11 08:33:03;;;;;;;53.47;24.88;;;;;;;10.75;100.00;102501.38;4942666;29;20031;-71
2022/11/11 08:35:29;;;;;;;53.75;25.42;;;;;;;10.71;100.00;102515.31;4941631;29;20027;-71
2022/11/11 08:37:55;;;;;;;61.20;24.92;;;;;;;10.79;100.00;102510.16;4942282;29;20027;-73
2022/11/11 08:40:21;;;;;;;63.80;24.75;;;;;;;10.90;100.00;102531.88;4942527;29;20024;-73
2022/11/11 08:42:47;;;;;;;47.50;23.58;;;;;;;10.85;100.00;102528.66;4942010;29;20058;-73
2022/11/11 08:45:12;;;;;;;55.72;23.63;;;;;;;10.78;100.00;102522.84;4927958;29;20429;-74
2022/11/11 08:47:38;;;;;;;60.47;25.27;;;;;;;10.72;100.00;102533.28;4926743;29;20086;-74
2022/11/11 08:50:05;;;;;;;58.22;25.13;;;;;;;10.73;100.00;102524.19;4927718;29;20031;-72
2022/11/11 08:52:31;;;;;;;52.78;23.27;;;;;;;10.81;100.00;102544.28;4942862;29;20107;-73
2022/11/11 08:54:56;;;;;;;41.60;22.58;;;;;;;10.90;100.00;102526.47;4941339;29;20118;-72
2022/11/11 08:57:22;;;;;;;56.50;24.67;;;;;;;10.86;100.00;102530.38;4928100;29;20135;-71
2022/11/11 08:59:47;;;;;;;60.85;25.02;;;;;;;11.02;100.00;102530.91;4941175;29;20488;-70
2022/11/11 09:02:13;;;;;;;55.22;23.67;;;;;;;10.99;100.00;102531.13;4925816;29;20034;-71
2022/11/11 09:04:39;;;;;;;46.72;22.83;;;;;;;11.09;100.00;102537.59;4927527;29;20070;-72
2022/11/11 09:07:09;;;;;;;51.00;23.35;;;;;;;11.08;100.00;102535.84;4941795;29;20051;-72
2022/11/11 09:09:35;;;;;;;48.90;22.65;;;;;;;10.93;100.00;102547.88;4926441;29;20042;-71
2022/11/11 09:12:01;;;;;;;62.17;24.15;;;;;;;10.99;100.00;102547.41;4942376;29;20035;-72
2022/11/11 09:14:26;;;;;;;41.78;23.80;;;;;;;10.81;100.00;102554.25;4941099;29;20051;-71
2022/11/11 09:16:51;;;;;;;53.25;24.05;;;;;;;10.95;100.00;102551.31;4941884;29;20058;-72
2022/11/11 09:19:17;;;;;;;54.45;23.33;;;;;;;11.12;100.00;102548.16;4941298;29;20039;-71
2022/11/11 09:21:42;;;;;;;52.88;24.42;;;;;;;10.97;100.00;102551.22;4940500;29;20043;-71
2022/11/11 09:24:08;;;;;;;52.95;26.83;;;;;;;10.94;100.00;102559.59;4941778;29;20031;-72
2022/11/11 09:26:33;;;;;;;48.75;24.38;;;;;;;10.93;100.00;102558.72;4925098;29;20448;-72
2022/11/11 09:28:59;;;;;;;48.30;25.48;;;;;;;10.92;100.00;102558.84;4941256;29;20035;-73
2022/11/11 09:31:24;;;;;;;50.72;24.95;;;;;;;10.99;100.00;102563.66;4940392;29;20091;-71
2022/11/11 09:33:50;;;;;;;55.03;25.10;;;;;;;10.90;100.00;102569.81;4940171;29;20036;-73
2022/11/11 09:36:17;;;;;;;46.83;24.45;;;;;;;10.98;100.00;102566.50;4940259;28;20075;-71
2022/11/11 09:38:42;;;;;;;60.28;25.17;;;;;;;10.99;100.00;102563.66;4928458;29;20031;-71
2022/11/11 09:41:29;;;;;;;52.08;23.92;;;;;;;11.07;100.00;102566.63;4943370;29;20035;-71
2022/11/11 09:43:58;;;;;;;42.58;25.73;;;;;;;10.92;100.00;102572.41;4927025;29;20032;-72
2022/11/11 09:46:42;;;;;;;58.78;24.15;;;;;;;10.95;100.00;102567.59;4928918;29;20039;-72
2022/11/11 09:49:25;;;;;;;51.25;24.13;;;;;;;11.05;100.00;102557.78;4943294;29;20035;-71
2022/11/11 09:51:58;;;;;;;52.70;22.38;;;;;;;11.06;100.00;102570.34;4943187;29;20035;-71
2022/11/11 09:54:36;;;;;;;48.13;26.13;;;;;;;10.88;100.00;102571.75;4927150;29;20190;-71
2022/11/11 09:57:07;;;;;;;54.35;23.23;;;;;;;10.97;100.00;102571.06;4943236;29;20110;-72
2022/11/11 09:59:44;;;;;;;62.53;25.45;;;;;;;10.90;100.00;102586.06;4943305;29;20075;-71
2022/11/11 10:02:33;;;;;;;57.33;24.25;;;;;;;10.89;100.00;102573.50;4942977;29;20038;-71
2022/11/11 10:05:07;;;;;;;57.42;25.25;;;;;;;10.85;100.00;102577.44;4942962;29;20024;-71
2022/11/11 10:07:50;;;;;;;52.30;24.48;;;;;;;10.84;100.00;102578.41;4942940;29;20034;-71
2022/11/11 10:10:21;;;;;;;65.68;26.25;;;;;;;11.16;100.00;102585.91;4942319;29;20079;-71
2022/11/11 10:12:55;;;;;;;53.65;23.58;;;;;;;11.16;100.00;102588.59;4942772;29;20023;-71
2022/11/11 10:15:21;;;;;;;59.00;23.60;;;;;;;11.06;100.00;102575.75;4902847;28;1180048;-71
2022/11/11 10:18:20;;;;;;;48.42;22.00;;;;;;;11.33;100.00;102588.13;4945169;29;20370;-72
2022/11/11 10:20:54;;;;;;;40.45;22.27;;;;;;;11.19;100.00;102591.06;4928875;29;20032;-72
2022/11/11 10:23:25;;;;;;;51.38;21.80;;;;;;;11.08;100.00;102579.22;4944258;29;20122;-71
2022/11/11 10:25:53;;;;;;;44.85;21.85;;;;;;;10.97;100.00;102598.16;4929602;29;20067;-71
2022/11/11 10:28:22;;;;;;;41.58;20.10;;;;;;;11.08;100.00;102595.50;4945131;29;20031;-72
2022/11/11 10:30:50;;;;;;;45.83;19.23;;;;;;;11.17;100.00;102587.63;4929465;29;20035;-72
2022/11/11 10:33:27;;;;;;;50.75;21.65;;;;;;;11.25;100.00;102601.44;4943640;29;20023;-71
2022/11/11 10:35:56;;;;;;;50.63;23.85;;;;;;;11.18;100.00;102598.34;4943940;29;20071;-72
2022/11/11 10:38:34;;;;;;;42.50;19.45;;;;;;;11.35;100.00;102599.75;4944553;29;20122;-72
2022/11/11 10:41:17;;;;;;;44.90;19.98;;;;;;;11.18;100.00;102605.63;4944751;29;20171;-72
2022/11/11 10:43:46;;;;;;;43.17;20.70;;;;;;;11.29;100.00;102598.38;4929311;29;20031;-71
2022/11/11 10:46:29;;;;;;;42.40;19.73;;;;;;;11.37;99.84;102597.75;4944553;29;20182;-73
2022/11/11 10:49:02;;;;;;;39.45;19.95;;;;;;;11.38;98.86;102603.06;4929590;29;20094;-72
2022/11/11 10:51:34;;;;;;;38.22;17.85;;;;;;;11.35;99.04;102602.44;4944358;29;20310;-72
2022/11/11 10:54:09;;;;;;;43.35;20.05;;;;;;;11.11;99.33;102600.66;4929446;29;20035;-72
2022/11/11 10:56:42;;;;;;;44.13;19.98;;;;;;;11.24;99.14;102594.28;4943828;29;20039;-72
2022/11/11 10:59:21;;;;;;;42.25;19.77;;;;;;;11.35;98.67;102603.31;4943221;29;20024;-72
2022/11/11 11:01:53;;;;;;;43.33;19.15;;;;;;;11.43;98.80;102594.56;4928488;29;20039;-72
2022/11/11 11:04:57;;;;;;;52.17;19.75;;;;;;;11.46;97.96;102599.72;4943784;29;20127;-71
2022/11/11 11:07:28;;;;;;;37.65;18.45;;;;;;;11.39;97.77;102598.50;4851274;29;20037;-71
2022/11/11 11:09:58;;;;;;;37.47;18.52;;;;;;;11.55;97.37;102588.16;4914291;29;20143;-73
2022/11/11 11:12:33;;;;;;;41.25;20.63;;;;;;;11.43;97.82;102599.13;4944082;29;20044;-72
2022/11/11 11:15:03;;;;;;;36.65;19.27;;;;;;;11.26;98.48;102586.88;4929449;29;20115;-71
2022/11/11 11:17:36;;;;;;;51.55;20.83;;;;;;;11.41;97.28;102602.84;4944099;29;20467;-72
2022/11/11 11:20:12;;;;;;;41.00;18.90;;;;;;;11.38;97.84;102604.91;4930238;29;20135;-72
2022/11/11 11:22:53;;;;;;;43.00;20.35;;;;;;;11.33;98.35;102593.56;4928513;29;20058;-71
2022/11/11 11:25:22;;;;;;;41.15;20.52;;;;;;;11.27;97.63;102577.75;4945044;29;20110;-71
2022/11/11 11:28:03;;;;;;;36.08;18.42;;;;;;;11.43;97.67;102594.56;4944816;29;20749;-72
2022/11/11 11:30:28;;;;;;;48.97;20.27;;;;;;;11.40;97.85;102601.06;4945078;29;20373;-72
2022/11/11 11:32:59;;;;;;;49.30;19.67;;;;;;;11.32;98.03;102603.53;4943721;29;20036;-71
2022/11/11 11:35:37;;;;;;;38.95;21.08;;;;;;;11.47;96.80;102612.31;4927893;29;20491;-72
2022/11/11 11:38:04;;;;;;;40.83;18.92;;;;;;;11.43;97.34;102599.13;4943230;29;20058;-72
2022/11/11 11:40:50;;;;;;;44.90;21.23;;;;;;;11.21;98.19;102606.22;4944928;29;20027;-71
2022/11/11 11:43:37;;;;;;;39.45;20.42;;;;;;;11.25;98.41;102601.44;4943760;29;20023;-72
2022/11/11 11:46:13;;;;;;;50.35;20.40;;;;;;;11.30;98.24;102599.22;4943131;29;20480;-72
2022/11/11 11:48:57;;;;;;;36.45;20.00;;;;;;;11.58;97.44;102598.75;4943531;29;20034;-72
2022/11/11 11:51:42;;;;;;;40.20;21.33;;;;;;;11.39;97.92;102609.34;4929570;29;20027;-72
2022/11/11 11:54:23;;;;;;;44.20;20.73;;;;;;;11.29;98.03;102608.34;4944241;29;20038;-72
2022/11/11 11:56:53;;;;;;;41.83;21.07;;;;;;;11.42;97.63;102603.69;4944272;29;20043;-72
2022/11/11 11:59:42;;;;;;;45.95;21.85;;;;;;;11.45;97.24;102614.28;4942722;28;20646;-72
2022/11/11 12:02:26;;;;;;;40.72;20.15;;;;;;;11.26;98.38;102604.03;4928488;29;20555;-73
2022/11/11 12:05:01;;;;;;;39.40;20.33;;;;;;;11.14;99.02;102597.69;4928476;29;20054;-72
2022/11/11 12:07:54;;;;;;;38.50;20.08;;;;;;;11.23;98.73;102603.41;4943254;29;20091;-71
2022/11/11 12:10:28;;;;;;;41.33;21.83;;;;;;;11.27;98.14;102588.59;4942555;29;20038;-72
2022/11/11 12:12:59;;;;;;;43.50;20.98;;;;;;;11.40;98.14;102600.22;4927602;29;20023;-72
2022/11/11 12:15:33;;;;;;;41.15;20.15;;;;;;;11.43;98.00;102600.00;4941993;28;20066;-72
2022/11/11 12:18:16;;;;;;;39.22;20.20;;;;;;;11.44;97.93;102599.00;4927700;29;20134;-72
2022/11/11 12:21:03;;;;;;;42.38;21.55;;;;;;;11.59;96.74;102600.47;4942733;29;20035;-72
2022/11/11 12:24:10;;;;;;;39.85;21.98;;;;;;;11.53;96.90;102608.25;4942887;29;20126;-72
2022/11/11 12:27:03;;;;;;;43.53;21.80;;;;;;;11.47;97.52;102609.59;4927426;29;20130;-72
2022/11/11 12:29:43;;;;;;;44.55;21.75;;;;;;;11.30;98.03;102610.09;4942020;29;20042;-72
2022/11/11 12:32:17;;;;;;;48.28;22.33;;;;;;;11.35;98.17;102597.03;4927916;29;20054;-72
2022/11/11 12:35:04;;;;;;;39.45;21.60;;;;;;;11.34;97.88;102606.97;4941576;29;20042;-71
2022/11/11 12:37:59;;;;;;;39.63;20.60;;;;;;;11.29;98.47;102608.34;4942395;29;20143;-72
2022/11/11 12:40:24;;;;;;;44.42;22.33;;;;;;;11.49;97.77;102615.78;4946625;29;20536;-72